createdAt,value
2022-10-05T00:00:55.171Z,101112.80
2022-10-05T00:03:24.589Z,101109.00
2022-10-05T00:05:51.362Z,101107.80
2022-10-05T00:08:22.764Z,101110.80
2022-10-05T00:10:50.660Z,101104.40
2022-10-05T00:13:28.270Z,101094.00
2022-10-05T00:16:19.819Z,101100.20
2022-10-05T00:18:51.329Z,101097.00
2022-10-05T00:21:27.709Z,101092.40
2022-10-05T00:23:58.112Z,101090.80
2022-10-05T00:26:27.687Z,101091.20
2022-10-05T00:28:55.018Z,101088.60
2022-10-05T00:31:31.469Z,101077.60
2022-10-05T00:33:59.005Z,101077.80
2022-10-05T00:36:26.337Z,101074.60
2022-10-05T00:38:54.429Z,101073.40
2022-10-05T00:41:29.400Z,101075.00
2022-10-05T00:44:45.992Z,101075.60
2022-10-05T00:47:32.710Z,101083.40
2022-10-05T00:50:43.324Z,101079.20
2022-10-05T00:53:31.446Z,101087.00
2022-10-05T00:56:19.677Z,101090.00
2022-10-05T00:59:07.634Z,101092.20
2022-10-05T01:02:00.536Z,101078.60
2022-10-05T01:04:42.715Z,101075.20
2022-10-05T01:07:21.037Z,101074.40
2022-10-05T01:10:08.739Z,101074.80
2022-10-05T01:12:50.627Z,101065.40
2022-10-05T01:15:31.453Z,101061.80
2022-10-05T01:18:12.279Z,101061.20
2022-10-05T01:20:57.083Z,101056.00
2022-10-05T01:24:04.051Z,101048.20
2022-10-05T01:27:22.073Z,101050.00
2022-10-05T01:30:03.550Z,101049.80
2022-10-05T01:32:52.109Z,101055.40
2022-10-05T01:36:10.705Z,101050.40
2022-10-05T01:39:14.442Z,101048.00
2022-10-05T01:42:07.115Z,101046.60
2022-10-05T01:45:06.166Z,101042.60
2022-10-05T01:47:51.082Z,101046.80
2022-10-05T01:50:42.865Z,101043.60
2022-10-05T01:53:33.231Z,101040.80
2022-10-05T01:56:22.706Z,101033.00
2022-10-05T01:59:08.216Z,101030.80
2022-10-05T02:02:00.669Z,101026.40
2022-10-05T02:07:31.851Z,101020.00
2022-10-05T02:10:05.952Z,101017.80
2022-10-05T02:12:38.609Z,101011.00
2022-10-05T02:15:15.872Z,101017.40
2022-10-05T02:17:52.833Z,101012.40
2022-10-05T02:20:27.532Z,101012.60
2022-10-05T02:23:02.297Z,101015.80
2022-10-05T02:25:39.402Z,101015.60
2022-10-05T02:28:15.750Z,101017.00
2022-10-05T02:30:55.230Z,101012.60
2022-10-05T02:33:32.470Z,101014.40
2022-10-05T02:36:23.948Z,101011.20
2022-10-05T02:39:27.171Z,101016.80
2022-10-05T02:42:08.623Z,101020.00
2022-10-05T02:45:06.390Z,101011.00
2022-10-05T02:47:54.243Z,101008.00
2022-10-05T02:50:53.499Z,101004.80
2022-10-05T02:53:39.972Z,100998.00
2022-10-05T02:56:27.892Z,100990.80
2022-10-05T02:59:17.749Z,100986.60
2022-10-05T03:01:54.536Z,100984.00
2022-10-05T03:04:46.458Z,100988.20
2022-10-05T03:07:29.665Z,100985.20
2022-10-05T03:10:46.131Z,100984.20
2022-10-05T03:13:25.910Z,100980.00
2022-10-05T03:16:23.879Z,100976.80
2022-10-05T03:19:27.939Z,100971.40
2022-10-05T03:22:26.248Z,100965.20
2022-10-05T03:25:14.817Z,100964.80
2022-10-05T03:28:11.267Z,100964.20
2022-10-05T03:31:15.024Z,100957.60
2022-10-05T03:34:08.494Z,100949.40
2022-10-05T03:37:03.779Z,100951.20
2022-10-05T03:39:44.858Z,100944.20
2022-10-05T03:42:30.625Z,100943.60
2022-10-05T03:45:25.632Z,100945.60
2022-10-05T03:48:07.573Z,100942.00
2022-10-05T03:50:55.621Z,100948.20
2022-10-05T03:53:28.369Z,100943.20
2022-10-05T03:56:11.933Z,100938.80
2022-10-05T03:58:45.420Z,100938.60
2022-10-05T04:01:20.919Z,100934.60
2022-10-05T04:03:54.998Z,100936.40
2022-10-05T04:06:28.115Z,100930.80
2022-10-05T04:09:09.848Z,100929.00
2022-10-05T04:11:51.211Z,100929.20
2022-10-05T04:14:37.026Z,100925.00
2022-10-05T04:17:16.615Z,100930.80
2022-10-05T04:19:59.944Z,100922.80
2022-10-05T04:22:39.169Z,100919.20
2022-10-05T04:25:21.812Z,100926.00
2022-10-05T04:28:10.341Z,100924.20
2022-10-05T04:30:44.368Z,100924.00
2022-10-05T04:33:13.782Z,100929.40
2022-10-05T04:36:11.726Z,100927.40
2022-10-05T04:39:23.994Z,100923.00
2022-10-05T04:42:24.773Z,100922.40
2022-10-05T04:45:25.418Z,100922.20
2022-10-05T04:48:38.967Z,100922.60
2022-10-05T04:51:39.619Z,100911.20
2022-10-05T04:54:36.272Z,100915.00
2022-10-05T04:57:10.722Z,100920.40
2022-10-05T05:00:13.807Z,100920.80
2022-10-05T05:03:06.772Z,100920.40
2022-10-05T05:06:16.796Z,100922.40
2022-10-05T05:09:03.232Z,100922.60
2022-10-05T05:12:11.330Z,100926.40
2022-10-05T05:15:09.469Z,100926.60
2022-10-05T05:18:04.289Z,100922.80
2022-10-05T05:21:01.573Z,100930.80
2022-10-05T05:24:01.578Z,100930.40
2022-10-05T05:26:50.731Z,100930.00
2022-10-05T05:29:40.752Z,100934.80
2022-10-05T05:32:29.010Z,100935.60
2022-10-05T05:35:53.385Z,100925.00
2022-10-05T05:39:19.149Z,100924.80
2022-10-05T05:42:01.763Z,100926.40
2022-10-05T05:44:50.776Z,100922.80
2022-10-05T05:47:29.350Z,100927.60
2022-10-05T05:50:20.606Z,100926.00
2022-10-05T05:52:58.872Z,100925.00
2022-10-05T05:55:36.840Z,100925.20
2022-10-05T05:58:16.768Z,100926.00
2022-10-05T06:01:33.367Z,100928.00
2022-10-05T06:04:08.933Z,100922.40
2022-10-05T06:06:42.578Z,100919.40
2022-10-05T06:09:37.358Z,100918.40
2022-10-05T06:12:41.563Z,100925.00
2022-10-05T06:15:41.980Z,100919.40
2022-10-05T06:18:17.396Z,100925.80
2022-10-05T06:20:59.931Z,100926.20
2022-10-05T06:24:18.254Z,100930.40
2022-10-05T06:27:26.222Z,100929.40
2022-10-05T06:30:15.916Z,100925.80
2022-10-05T06:33:07.765Z,100932.80
2022-10-05T06:35:57.909Z,100928.80
2022-10-05T06:38:34.564Z,100935.00
2022-10-05T06:41:10.221Z,100938.00
2022-10-05T06:43:46.257Z,100943.20
2022-10-05T06:46:51.900Z,100939.20
2022-10-05T06:50:03.864Z,100940.80
2022-10-05T06:53:25.097Z,100936.40
2022-10-05T06:56:21.203Z,100937.80
2022-10-05T06:59:02.074Z,100940.00
2022-10-05T07:01:37.715Z,100935.60
2022-10-05T07:04:37.179Z,100936.80
2022-10-05T07:07:40.047Z,100934.80
2022-10-05T07:10:38.800Z,100935.20
2022-10-05T07:13:52.436Z,100934.60
2022-10-05T07:16:47.124Z,100931.00
2022-10-05T07:19:29.502Z,100934.20
2022-10-05T07:22:37.689Z,100940.60
2022-10-05T07:25:17.480Z,100937.80
2022-10-05T07:28:01.214Z,100937.80
2022-10-05T07:30:32.089Z,100937.20
2022-10-05T07:33:05.729Z,100933.40
2022-10-05T07:36:14.723Z,100938.20
2022-10-05T07:39:06.157Z,100943.80
2022-10-05T07:41:52.611Z,100945.20
2022-10-05T07:44:38.510Z,100945.00
2022-10-05T07:47:31.108Z,100950.20
2022-10-05T07:50:28.905Z,100950.00
2022-10-05T07:53:06.927Z,100956.80
2022-10-05T07:55:54.238Z,100949.00
2022-10-05T07:58:43.977Z,100948.40
2022-10-05T08:01:23.577Z,100951.20
2022-10-05T08:04:08.133Z,100958.40
2022-10-05T08:06:38.219Z,100956.80
2022-10-05T08:09:36.533Z,100956.00
2022-10-05T08:12:55.291Z,100957.00
2022-10-05T08:15:31.861Z,100952.60
2022-10-05T08:18:23.428Z,100954.20
2022-10-05T08:20:57.669Z,100950.00
2022-10-05T08:23:45.257Z,100949.80
2022-10-05T08:26:42.897Z,100949.60
2022-10-05T08:29:51.486Z,100942.40
2022-10-05T08:33:15.785Z,100942.60
2022-10-05T08:35:48.744Z,100943.20
2022-10-05T08:38:32.760Z,100934.80
2022-10-05T08:41:11.987Z,100943.00
2022-10-05T08:44:22.915Z,100941.40
2022-10-05T08:47:16.443Z,100938.80
2022-10-05T08:50:45.500Z,100946.60
2022-10-05T08:54:03.362Z,100946.20
2022-10-05T08:57:24.659Z,100942.80
2022-10-05T09:00:10.880Z,100934.40
2022-10-05T09:03:08.844Z,100941.60
2022-10-05T09:06:02.861Z,100939.60
2022-10-05T09:08:55.620Z,100937.40
2022-10-05T09:11:40.717Z,100938.80
2022-10-05T09:15:24.289Z,100930.40
2022-10-05T09:18:25.118Z,100928.60
2022-10-05T09:21:05.843Z,100925.80
2022-10-05T09:23:44.073Z,100922.80
2022-10-05T09:26:44.146Z,100929.80
2022-10-05T09:30:07.273Z,100927.60
2022-10-05T09:32:49.242Z,100912.00
2022-10-05T09:35:58.295Z,100909.00
2022-10-05T09:39:10.924Z,100917.80
2022-10-05T09:42:07.551Z,100918.00
2022-10-05T09:45:31.345Z,100916.20
2022-10-05T09:48:30.965Z,100913.40
2022-10-05T09:51:09.853Z,100909.40
2022-10-05T09:54:01.096Z,100907.60
2022-10-05T09:56:42.678Z,100904.80
2022-10-05T09:59:31.489Z,100910.40
2022-10-05T10:02:17.699Z,100898.60
2022-10-05T10:05:05.242Z,100902.80
2022-10-05T10:07:50.321Z,100895.80
2022-10-05T10:10:58.812Z,100895.60
2022-10-05T10:14:02.739Z,100895.40
2022-10-05T10:16:46.353Z,100897.40
2022-10-05T10:19:24.201Z,100897.00
2022-10-05T10:22:43.328Z,100898.80
2022-10-05T10:26:16.365Z,100896.60
2022-10-05T10:29:34.151Z,100894.00
2022-10-05T10:32:50.926Z,100897.60
2022-10-05T10:36:13.065Z,100892.00
2022-10-05T10:38:55.411Z,100892.80
2022-10-05T10:41:49.660Z,100887.20
2022-10-05T10:44:22.710Z,100886.60
2022-10-05T10:47:19.044Z,100885.20
2022-10-05T10:50:26.295Z,100892.00
2022-10-05T10:53:24.283Z,100887.80
2022-10-05T10:56:44.254Z,100881.20
2022-10-05T10:59:56.303Z,100882.80
2022-10-05T11:02:28.681Z,100890.00
2022-10-05T11:05:28.187Z,100880.60
2022-10-05T11:08:39.919Z,100889.20
2022-10-05T11:11:18.748Z,100874.40
2022-10-05T11:14:04.306Z,100869.20
2022-10-05T11:17:15.668Z,100872.40
2022-10-05T11:20:23.410Z,100867.20
2022-10-05T11:22:56.273Z,100864.40
2022-10-05T11:26:01.875Z,100854.60
2022-10-05T11:29:09.133Z,100848.00
2022-10-05T11:32:21.559Z,100835.80
2022-10-05T11:35:36.597Z,100844.20
2022-10-05T11:38:37.251Z,100828.20
2022-10-05T11:41:38.523Z,100833.20
2022-10-05T11:44:49.127Z,100822.40
2022-10-05T11:47:26.564Z,100819.40
2022-10-05T11:50:11.394Z,100811.60
2022-10-05T11:52:57.343Z,100802.00
2022-10-05T11:55:49.766Z,100798.00
2022-10-05T11:58:28.845Z,100793.60
2022-10-05T12:01:17.872Z,100786.40
2022-10-05T12:04:18.123Z,100784.80
2022-10-05T12:07:00.044Z,100781.20
2022-10-05T12:10:21.814Z,100777.60
2022-10-05T12:13:39.476Z,100781.80
2022-10-05T12:16:31.901Z,100769.80
2022-10-05T12:19:19.049Z,100762.40
2022-10-05T12:22:03.853Z,100758.80
2022-10-05T12:24:36.624Z,100759.80
2022-10-05T12:27:16.735Z,100751.20
2022-10-05T12:30:28.140Z,100751.40
2022-10-05T12:33:32.712Z,100751.40
2022-10-05T12:36:11.564Z,100746.00
2022-10-05T12:38:54.813Z,100742.20
2022-10-05T12:41:55.200Z,100733.00
2022-10-05T12:45:21.203Z,100726.40
2022-10-05T12:48:18.968Z,100723.00
2022-10-05T12:51:27.198Z,100715.40
2022-10-05T12:53:59.689Z,100716.20
2022-10-05T12:57:05.933Z,100706.80
2022-10-05T12:59:50.622Z,100701.60
2022-10-05T13:02:39.547Z,100697.00
2022-10-05T13:05:09.544Z,100694.20
2022-10-05T13:08:00.746Z,100686.40
2022-10-05T13:10:41.011Z,100684.60
2022-10-05T13:13:37.537Z,100686.40
2022-10-05T13:16:15.468Z,100691.00
2022-10-05T13:19:46.692Z,100687.60
2022-10-05T13:22:30.777Z,100676.40
2022-10-05T13:25:34.633Z,100676.60
2022-10-05T13:28:26.674Z,100666.00
2022-10-05T13:31:23.148Z,100660.60
2022-10-05T13:34:08.163Z,100655.00
2022-10-05T13:36:56.027Z,100646.60
2022-10-05T13:40:00.186Z,100644.00
2022-10-05T13:42:41.898Z,100644.40
2022-10-05T13:45:29.852Z,100644.00
2022-10-05T13:47:59.475Z,100637.00
2022-10-05T13:50:35.390Z,100639.40
2022-10-05T13:53:13.399Z,100641.80
2022-10-05T13:55:55.252Z,100641.20
2022-10-05T13:58:45.406Z,100634.40
2022-10-05T14:01:49.290Z,100625.20
2022-10-05T14:04:24.728Z,100620.80
2022-10-05T14:06:52.750Z,100617.60
2022-10-05T14:09:19.738Z,100618.60
2022-10-05T14:11:57.030Z,100626.40
2022-10-05T14:14:30.418Z,100622.80
2022-10-05T14:17:05.681Z,100625.60
2022-10-05T14:19:46.867Z,100625.20
2022-10-05T14:22:22.855Z,100625.40
2022-10-05T14:25:07.810Z,100622.60
2022-10-05T14:27:57.421Z,100621.80
2022-10-05T14:30:27.710Z,100618.60
2022-10-05T14:32:59.498Z,100614.60
2022-10-05T14:35:53.880Z,100616.80
2022-10-05T14:38:32.480Z,100597.80
2022-10-05T14:41:20.560Z,100602.00
2022-10-05T14:43:56.401Z,100595.20
2022-10-05T14:46:29.821Z,100594.40
2022-10-05T14:49:17.599Z,100589.80
2022-10-05T14:51:44.442Z,100582.80
2022-10-05T14:54:29.543Z,100585.40
2022-10-05T14:57:25.285Z,100584.20
2022-10-05T15:00:12.424Z,100586.00
2022-10-05T15:03:18.634Z,100595.60
2022-10-05T15:05:52.922Z,100591.00
2022-10-05T15:09:17.467Z,100597.20
2022-10-05T15:11:59.963Z,100596.80
2022-10-05T15:14:44.274Z,100594.40
2022-10-05T15:17:39.604Z,100607.60
2022-10-05T15:20:43.773Z,100610.60
2022-10-05T15:23:38.031Z,100620.00
2022-10-05T15:26:53.074Z,100618.40
2022-10-05T15:29:42.047Z,100625.40
2022-10-05T15:32:43.551Z,100632.00
2022-10-05T15:35:36.161Z,100636.00
2022-10-05T15:39:00.081Z,100638.80
2022-10-05T15:41:36.417Z,100645.40
2022-10-05T15:45:13.828Z,100653.80
2022-10-05T15:48:03.666Z,100673.80
2022-10-05T15:50:37.599Z,100669.80
2022-10-05T15:54:38.102Z,100672.40
2022-10-05T15:57:26.168Z,100680.60
2022-10-05T16:00:07.641Z,100685.40
2022-10-05T16:02:56.845Z,100690.20
2022-10-05T16:05:57.990Z,100691.20
2022-10-05T16:09:07.281Z,100698.60
2022-10-05T16:11:59.825Z,100698.40
2022-10-05T16:14:57.167Z,100706.40
2022-10-05T16:17:41.023Z,100713.40
2022-10-05T16:20:23.139Z,100708.80
2022-10-05T16:23:07.152Z,100707.80
2022-10-05T16:26:01.657Z,100717.20
2022-10-05T16:29:04.283Z,100722.00
2022-10-05T16:31:37.448Z,100723.20
2022-10-05T16:34:56.797Z,100722.40
2022-10-05T16:37:52.014Z,100734.40
2022-10-05T16:41:02.256Z,100733.60
2022-10-05T16:44:19.795Z,100741.40
2022-10-05T16:47:27.557Z,100748.00
2022-10-05T16:50:32.842Z,100756.00
2022-10-05T16:53:17.384Z,100761.40
2022-10-05T16:55:52.076Z,100777.00
2022-10-05T16:58:48.036Z,100776.60
2022-10-05T17:01:44.611Z,100771.60
2022-10-05T17:04:47.454Z,100790.40
2022-10-05T17:07:45.551Z,100807.60
2022-10-05T17:10:31.167Z,100793.60
2022-10-05T17:13:37.476Z,100805.20
2022-10-05T17:16:23.948Z,100806.40
2022-10-05T17:19:23.732Z,100808.80
2022-10-05T17:22:03.176Z,100830.20
2022-10-05T17:25:06.080Z,100836.40
2022-10-05T17:27:53.897Z,100848.20
2022-10-05T17:30:39.564Z,100851.60
2022-10-05T17:33:14.136Z,100865.60
2022-10-05T17:36:12.472Z,100874.20
2022-10-05T17:38:49.215Z,100874.20
2022-10-05T17:41:20.643Z,100880.60
2022-10-05T17:44:21.488Z,100894.00
2022-10-05T17:46:59.819Z,100893.40
2022-10-05T17:50:15.111Z,100905.80
2022-10-05T17:53:03.240Z,100903.40
2022-10-05T17:55:33.997Z,100901.20
2022-10-05T17:58:23.689Z,100914.40
2022-10-05T18:00:58.318Z,100913.80
2022-10-05T18:03:50.131Z,100910.40
2022-10-05T18:06:26.010Z,100916.00
2022-10-05T18:09:14.379Z,100926.60
2022-10-05T18:11:45.112Z,100929.60
2022-10-05T18:14:25.246Z,100929.40
2022-10-05T18:17:03.962Z,100937.40
2022-10-05T18:19:32.639Z,100928.80
2022-10-05T18:22:10.216Z,100937.00
2022-10-05T18:25:04.326Z,100930.20
2022-10-05T18:28:28.822Z,100935.20
2022-10-05T18:31:23.598Z,100932.80
2022-10-05T18:34:20.385Z,100942.60
2022-10-05T18:37:37.822Z,100941.40
2022-10-05T18:40:22.020Z,100939.20
2022-10-05T18:43:15.871Z,100937.60
2022-10-05T18:46:26.272Z,100935.80
2022-10-05T18:49:20.825Z,100935.80
2022-10-05T18:52:32.356Z,100938.60
2022-10-05T18:55:32.965Z,100940.60
2022-10-05T18:58:35.940Z,100939.60
2022-10-05T19:01:33.108Z,100945.40
2022-10-05T19:04:37.609Z,100949.40
2022-10-05T19:07:28.812Z,100944.80
2022-10-05T19:10:28.471Z,100945.00
2022-10-05T19:13:17.059Z,100937.40
2022-10-05T19:16:26.576Z,100938.40
2022-10-05T19:19:33.129Z,100944.80
2022-10-05T19:22:45.897Z,100943.00
2022-10-05T19:25:47.618Z,100945.80
2022-10-05T19:28:37.117Z,100948.40
2022-10-05T19:31:13.152Z,100948.00
2022-10-05T19:34:01.743Z,100951.40
2022-10-05T19:36:59.485Z,100958.20
2022-10-05T19:39:44.505Z,100954.20
2022-10-05T19:42:28.794Z,100954.00
2022-10-05T19:45:27.811Z,100958.20
2022-10-05T19:48:26.968Z,100961.20
2022-10-05T19:51:15.942Z,100959.20
2022-10-05T19:53:49.976Z,100962.00
2022-10-05T19:56:32.238Z,100960.00
2022-10-05T19:59:17.528Z,100960.80
2022-10-05T20:01:51.723Z,100970.80
2022-10-05T20:04:56.665Z,100962.80
2022-10-05T20:07:23.536Z,100963.40
2022-10-05T20:09:59.324Z,100955.20
2022-10-05T20:12:57.649Z,100962.20
2022-10-05T20:15:50.418Z,100959.60
2022-10-05T20:19:08.266Z,100971.00
2022-10-05T20:21:54.076Z,100973.40
2022-10-05T20:24:28.021Z,100973.80
2022-10-05T20:27:07.162Z,100985.80
2022-10-05T20:29:44.856Z,100983.80
2022-10-05T20:32:17.926Z,100985.80
2022-10-05T20:34:49.587Z,100982.00
2022-10-05T20:37:19.634Z,100984.20
2022-10-05T20:39:47.967Z,100989.40
2022-10-05T20:42:14.828Z,100993.20
2022-10-05T20:44:41.624Z,100998.00
2022-10-05T20:47:09.932Z,101007.00
2022-10-05T20:49:41.065Z,101002.60
2022-10-05T20:52:11.389Z,101009.00
2022-10-05T20:56:19.937Z,101019.60
2022-10-05T20:58:46.732Z,101021.80
2022-10-05T21:01:19.066Z,101022.00
2022-10-05T21:03:46.564Z,101017.60
2022-10-05T21:06:13.359Z,101026.40
2022-10-05T21:08:40.104Z,101024.00
2022-10-05T21:11:09.002Z,101023.40
2022-10-05T21:13:36.622Z,101023.00
2022-10-05T21:16:05.569Z,101026.40
2022-10-05T21:18:33.536Z,101029.00
2022-10-05T21:21:02.361Z,101033.80
2022-10-05T21:23:31.565Z,101039.80
2022-10-05T21:25:59.685Z,101029.60
2022-10-05T21:28:28.493Z,101035.60
2022-10-05T21:30:56.405Z,101035.20
2022-10-05T21:33:25.165Z,101036.60
2022-10-05T21:35:52.435Z,101035.40
2022-10-05T21:38:19.322Z,101034.60
2022-10-05T21:40:46.106Z,101034.60
2022-10-05T21:43:14.337Z,101038.80
2022-10-05T21:45:43.624Z,101047.00
2022-10-05T21:48:13.614Z,101046.60
2022-10-05T21:50:41.134Z,101060.20
2022-10-05T21:53:11.340Z,101068.00
2022-10-05T21:55:42.632Z,101074.20
2022-10-05T21:58:11.875Z,101093.00
2022-10-05T22:00:38.844Z,101114.20
2022-10-05T22:03:05.633Z,101119.40
2022-10-05T22:05:32.478Z,101128.80
2022-10-05T22:07:59.280Z,101138.00
2022-10-05T22:10:26.217Z,101142.60
2022-10-05T22:12:53.224Z,101148.00
2022-10-05T22:15:20.488Z,101149.00
2022-10-05T22:17:47.228Z,101138.20
2022-10-05T22:20:15.503Z,101139.80
2022-10-05T22:22:42.442Z,101146.60
2022-10-05T22:25:09.492Z,101150.40
2022-10-05T22:27:36.866Z,101146.20
2022-10-05T22:30:05.812Z,101157.00
2022-10-05T22:32:32.564Z,101165.80
2022-10-05T22:34:59.873Z,101168.20
2022-10-05T22:37:26.736Z,101169.20
2022-10-05T22:39:55.266Z,101163.20
2022-10-05T22:42:22.166Z,101180.80
2022-10-05T22:44:48.891Z,101174.40
2022-10-05T22:47:15.836Z,101188.60
2022-10-05T22:49:42.540Z,101202.20
2022-10-05T22:52:09.287Z,101210.80
2022-10-05T22:54:37.405Z,101209.80
2022-10-05T22:57:04.370Z,101219.80
2022-10-05T22:59:31.322Z,101213.80
2022-10-05T23:01:58.762Z,101229.00
2022-10-05T23:04:25.735Z,101238.00
2022-10-05T23:06:52.385Z,101251.40
2022-10-05T23:09:19.146Z,101256.40
2022-10-05T23:11:51.944Z,101275.60
2022-10-05T23:14:20.116Z,101277.80
2022-10-05T23:16:47.965Z,101286.60
2022-10-05T23:19:14.706Z,101302.00
2022-10-05T23:21:42.028Z,101308.00
2022-10-05T23:24:08.958Z,101316.00
2022-10-05T23:26:35.729Z,101323.20
2022-10-05T23:29:02.458Z,101330.80
2022-10-05T23:31:32.224Z,101340.40
2022-10-05T23:33:59.079Z,101338.80
2022-10-05T23:36:32.788Z,101338.60
2022-10-05T23:39:00.395Z,101350.60
2022-10-05T23:41:27.627Z,101356.20
2022-10-05T23:43:57.365Z,101361.00
2022-10-05T23:46:24.450Z,101359.00
2022-10-05T23:48:51.474Z,101348.40
2022-10-05T23:51:18.633Z,101340.60
2022-10-05T23:53:45.282Z,101358.80
2022-10-05T23:56:12.996Z,101362.20
2022-10-05T23:58:40.886Z,101355.00
